createdAt,value
2023-02-15T00:00:55.647Z,80.07
2023-02-15T00:01:55.707Z,80.04
2023-02-15T00:02:55.689Z,80.04
2023-02-15T00:03:55.633Z,79.83
2023-02-15T00:04:55.612Z,79.83
2023-02-15T00:05:55.584Z,79.83
2023-02-15T00:06:55.574Z,79.76
2023-02-15T00:07:55.589Z,80.04
2023-02-15T00:08:55.550Z,79.93
2023-02-15T00:09:55.549Z,79.86
2023-02-15T00:10:55.540Z,79.62
2023-02-15T00:11:55.553Z,79.52
2023-02-15T00:12:55.507Z,80.14
2023-02-15T00:13:55.527Z,79.76
2023-02-15T00:14:55.503Z,79.72
2023-02-15T00:15:55.481Z,80.04
2023-02-15T00:16:55.480Z,79.93
2023-02-15T00:17:55.471Z,79.41
2023-02-15T00:18:55.442Z,79.76
2023-02-15T00:19:55.487Z,79.55
2023-02-15T00:20:55.417Z,79.62
2023-02-15T00:21:55.411Z,79.55
2023-02-15T00:22:55.414Z,79.72
2023-02-15T00:23:55.384Z,79.72
2023-02-15T00:24:55.377Z,79.62
2023-02-15T00:25:55.393Z,79.66
2023-02-15T00:26:55.353Z,79.72
2023-02-15T00:27:55.364Z,79.83
2023-02-15T00:28:55.344Z,79.66
2023-02-15T00:29:55.410Z,79.72
2023-02-15T00:30:55.414Z,79.72
2023-02-15T00:31:55.313Z,79.83
2023-02-15T00:32:55.288Z,79.83
2023-02-15T00:33:55.275Z,79.21
2023-02-15T00:34:55.268Z,79.55
2023-02-15T00:35:55.281Z,79.72
2023-02-15T00:36:55.245Z,79.62
2023-02-15T00:37:55.259Z,79.83
2023-02-15T00:38:55.261Z,79.86
2023-02-15T00:39:55.222Z,79.52
2023-02-15T00:40:55.200Z,79.55
2023-02-15T00:41:55.189Z,79.76
2023-02-15T00:42:55.178Z,79.52
2023-02-15T00:43:55.233Z,79.76
2023-02-15T00:44:55.154Z,79.55
2023-02-15T00:45:55.205Z,79.62
2023-02-15T00:46:55.148Z,79.76
2023-02-15T00:47:55.119Z,79.66
2023-02-15T00:48:55.124Z,79.86
2023-02-15T00:49:55.138Z,79.66
2023-02-15T00:50:55.091Z,79.66
2023-02-15T00:51:55.100Z,79.62
2023-02-15T00:52:55.138Z,79.66
2023-02-15T00:53:55.053Z,79.55
2023-02-15T00:54:55.042Z,79.52
2023-02-15T00:55:55.058Z,79.86
2023-02-15T00:56:55.023Z,79.66
2023-02-15T00:57:55.006Z,79.86
2023-02-15T00:58:55.001Z,79.66
2023-02-15T00:59:54.984Z,79.86
2023-02-15T01:00:55.079Z,79.76
2023-02-15T01:01:55.001Z,79.76
2023-02-15T01:02:54.962Z,79.55
2023-02-15T01:03:54.942Z,79.66
2023-02-15T01:04:54.929Z,79.97
2023-02-15T01:05:54.924Z,79.86
2023-02-15T01:06:54.906Z,79.55
2023-02-15T01:07:54.975Z,79.86
2023-02-15T01:08:54.889Z,79.55
2023-02-15T01:09:54.888Z,79.55
2023-02-15T01:10:54.876Z,79.25
2023-02-15T01:11:54.863Z,79.45
2023-02-15T01:12:54.846Z,79.04
2023-02-15T01:13:54.845Z,79.45
2023-02-15T01:14:54.823Z,79.45
2023-02-15T01:15:54.884Z,78.94
2023-02-15T01:16:54.802Z,79.25
2023-02-15T01:17:54.886Z,79.04
2023-02-15T01:18:54.798Z,79.04
2023-02-15T01:19:54.790Z,79.14
2023-02-15T01:20:54.775Z,79.04
2023-02-15T01:21:54.748Z,79.08
2023-02-15T01:22:54.729Z,79.25
2023-02-15T01:23:54.749Z,79.38
2023-02-15T01:24:54.734Z,79.04
2023-02-15T01:25:54.739Z,79.04
2023-02-15T01:26:54.738Z,79.08
2023-02-15T01:27:54.679Z,79.28
2023-02-15T01:28:54.672Z,79.18
2023-02-15T01:29:54.745Z,79.18
2023-02-15T01:30:54.755Z,79.28
2023-02-15T01:31:54.866Z,79.38
2023-02-15T01:32:54.623Z,79.38
2023-02-15T01:33:54.616Z,79.49
2023-02-15T01:34:54.602Z,79.28
2023-02-15T01:35:54.587Z,79.38
2023-02-15T01:36:54.580Z,79.49
2023-02-15T01:37:54.608Z,79.38
2023-02-15T01:38:54.634Z,79.49
2023-02-15T01:39:54.590Z,79.08
2023-02-15T01:40:54.532Z,79.14
2023-02-15T01:41:54.516Z,79.08
2023-02-15T01:42:54.508Z,79.38
2023-02-15T01:43:54.563Z,79.28
2023-02-15T01:44:54.489Z,79.18
2023-02-15T01:45:54.515Z,79.18
2023-02-15T01:46:54.467Z,79.08
2023-02-15T01:47:54.451Z,78.77
2023-02-15T01:48:54.445Z,79.38
2023-02-15T01:49:54.468Z,79.38
2023-02-15T01:50:54.420Z,79.38
2023-02-15T01:51:54.424Z,79.28
2023-02-15T01:52:54.393Z,79.42
2023-02-15T01:53:54.404Z,79.38
2023-02-15T01:54:54.371Z,79.38
2023-02-15T01:55:54.425Z,79.38
2023-02-15T01:56:54.353Z,79.38
2023-02-15T01:57:54.335Z,79.42
2023-02-15T01:58:54.334Z,78.97
2023-02-15T01:59:54.344Z,79.38
2023-02-15T02:00:54.325Z,79.38
2023-02-15T02:01:54.404Z,79.38
2023-02-15T02:02:54.359Z,78.77
2023-02-15T02:03:54.275Z,78.97
2023-02-15T02:04:54.278Z,79.08
2023-02-15T02:05:54.256Z,79.11
2023-02-15T02:06:54.246Z,79.32
2023-02-15T02:07:54.261Z,79.38
2023-02-15T02:08:54.235Z,79.11
2023-02-15T02:09:54.205Z,79.11
2023-02-15T02:10:54.200Z,79.38
2023-02-15T02:11:54.246Z,79.38
2023-02-15T02:12:54.171Z,79.18
2023-02-15T02:13:54.196Z,79.18
2023-02-15T02:14:54.967Z,79.22
2023-02-15T02:15:54.206Z,79.38
2023-02-15T02:16:54.122Z,79.18
2023-02-15T02:17:54.138Z,79.22
2023-02-15T02:18:54.103Z,79.11
2023-02-15T02:19:54.132Z,79.28
2023-02-15T02:20:54.080Z,79.38
2023-02-15T02:21:54.083Z,79.08
2023-02-15T02:22:54.067Z,79.28
2023-02-15T02:23:54.055Z,79.49
2023-02-15T02:24:54.041Z,79.28
2023-02-15T02:25:54.084Z,79.01
2023-02-15T02:26:54.024Z,79.38
2023-02-15T02:27:54.033Z,79.49
2023-02-15T02:28:53.992Z,79.38
2023-02-15T02:29:53.995Z,79.18
2023-02-15T02:30:54.074Z,79.38
2023-02-15T02:31:54.020Z,79.42
2023-02-15T02:32:53.950Z,79.18
2023-02-15T02:33:53.949Z,79.38
2023-02-15T02:34:53.930Z,79.38
2023-02-15T02:35:53.959Z,79.08
2023-02-15T02:36:53.907Z,79.18
2023-02-15T02:37:53.924Z,79.18
2023-02-15T02:38:53.882Z,79.08
2023-02-15T02:39:53.873Z,79.49
2023-02-15T02:40:53.860Z,78.87
2023-02-15T02:41:53.862Z,79.28
2023-02-15T02:42:53.834Z,79.38
2023-02-15T02:43:53.892Z,79.28
2023-02-15T02:44:53.831Z,79.38
2023-02-15T02:45:53.810Z,78.97
2023-02-15T02:46:53.915Z,78.87
2023-02-15T02:47:53.780Z,79.32
2023-02-15T02:48:53.808Z,79.38
2023-02-15T02:49:53.879Z,79.52
2023-02-15T02:50:53.757Z,78.91
2023-02-15T02:51:53.752Z,79.01
2023-02-15T02:52:53.731Z,79.32
2023-02-15T02:53:53.722Z,79.08
2023-02-15T02:54:53.701Z,79.22
2023-02-15T02:55:53.711Z,79.52
2023-02-15T02:56:53.699Z,79.52
2023-02-15T02:57:53.671Z,78.91
2023-02-15T02:58:53.666Z,78.91
2023-02-15T02:59:53.671Z,78.91
2023-02-15T03:00:53.641Z,78.91
2023-02-15T03:01:53.696Z,79.11
2023-02-15T03:02:53.670Z,79.01
2023-02-15T03:03:53.606Z,78.91
2023-02-15T03:04:53.611Z,78.91
2023-02-15T03:05:53.586Z,79.11
2023-02-15T03:06:53.579Z,78.80
2023-02-15T03:07:53.590Z,78.91
2023-02-15T03:08:53.545Z,79.11
2023-02-15T03:09:53.546Z,78.80
2023-02-15T03:10:53.527Z,78.80
2023-02-15T03:11:53.546Z,78.80
2023-02-15T03:12:53.506Z,78.91
2023-02-15T03:13:53.572Z,78.91
2023-02-15T03:14:53.483Z,79.01
2023-02-15T03:15:53.538Z,78.80
2023-02-15T03:16:53.457Z,79.11
2023-02-15T03:17:53.453Z,78.91
2023-02-15T03:18:53.442Z,78.91
2023-02-15T03:19:53.486Z,79.52
2023-02-15T03:20:53.422Z,78.80
2023-02-15T03:21:53.403Z,78.84
2023-02-15T03:22:53.404Z,78.80
2023-02-15T03:23:53.382Z,78.91
2023-02-15T03:24:53.393Z,78.80
2023-02-15T03:25:53.397Z,78.91
2023-02-15T03:26:53.348Z,78.91
2023-02-15T03:27:53.344Z,79.11
2023-02-15T03:28:53.322Z,79.05
2023-02-15T03:29:53.362Z,79.05
2023-02-15T03:30:53.337Z,78.91
2023-02-15T03:31:53.482Z,78.94
2023-02-15T03:32:53.286Z,78.94
2023-02-15T03:33:53.274Z,78.84
2023-02-15T03:34:53.257Z,79.15
2023-02-15T03:35:53.250Z,78.94
2023-02-15T03:36:53.241Z,79.05
2023-02-15T03:37:53.292Z,79.15
2023-02-15T03:38:53.218Z,78.94
2023-02-15T03:39:53.211Z,78.94
2023-02-15T03:40:53.202Z,79.05
2023-02-15T03:41:53.186Z,79.15
2023-02-15T03:42:53.168Z,78.84
2023-02-15T03:43:53.178Z,79.15
2023-02-15T03:44:53.146Z,79.05
2023-02-15T03:45:53.142Z,79.25
2023-02-15T03:46:53.763Z,79.25
2023-02-15T03:47:53.144Z,78.94
2023-02-15T03:48:53.106Z,78.94
2023-02-15T03:49:53.121Z,78.84
2023-02-15T03:50:53.086Z,78.88
2023-02-15T03:51:53.074Z,79.29
2023-02-15T03:52:53.055Z,79.08
2023-02-15T03:53:53.140Z,79.08
2023-02-15T03:54:53.030Z,79.49
2023-02-15T03:55:53.098Z,79.29
2023-02-15T03:56:53.011Z,79.43
2023-02-15T03:57:53.017Z,79.43
2023-02-15T03:58:52.992Z,79.53
2023-02-15T03:59:52.990Z,79.12
2023-02-15T04:00:52.994Z,79.22
2023-02-15T04:01:53.028Z,79.33
2023-02-15T04:02:52.972Z,78.91
2023-02-15T04:03:52.957Z,78.95
2023-02-15T04:04:52.926Z,78.95
2023-02-15T04:05:52.915Z,79.36
2023-02-15T04:06:52.900Z,79.22
2023-02-15T04:07:52.909Z,79.16
2023-02-15T04:08:52.906Z,78.95
2023-02-15T04:09:52.871Z,79.36
2023-02-15T04:10:52.872Z,79.47
2023-02-15T04:11:52.845Z,79.16
2023-02-15T04:12:52.839Z,79.26
2023-02-15T04:13:52.875Z,79.26
2023-02-15T04:14:52.819Z,78.99
2023-02-15T04:15:52.802Z,79.09
2023-02-15T04:16:52.977Z,79.40
2023-02-15T04:17:52.784Z,79.30
2023-02-15T04:18:52.764Z,79.30
2023-02-15T04:19:52.825Z,79.30
2023-02-15T04:20:52.767Z,79.19
2023-02-15T04:21:52.731Z,79.19
2023-02-15T04:22:52.744Z,79.09
2023-02-15T04:23:52.708Z,79.33
2023-02-15T04:24:52.705Z,79.33
2023-02-15T04:25:52.715Z,79.33
2023-02-15T04:26:52.677Z,79.13
2023-02-15T04:27:52.664Z,79.13
2023-02-15T04:28:52.653Z,79.13
2023-02-15T04:29:52.717Z,79.06
2023-02-15T04:30:52.702Z,79.16
2023-02-15T04:31:52.762Z,79.37
2023-02-15T04:32:52.628Z,79.33
2023-02-15T04:33:52.601Z,79.13
2023-02-15T04:34:52.583Z,79.16
2023-02-15T04:35:52.614Z,79.78
2023-02-15T04:36:52.563Z,79.27
2023-02-15T04:37:52.591Z,79.58
2023-02-15T04:38:52.552Z,79.64
2023-02-15T04:39:52.527Z,79.68
2023-02-15T04:40:52.523Z,79.58
2023-02-15T04:41:52.508Z,79.68
2023-02-15T04:42:52.508Z,79.37
2023-02-15T04:43:52.523Z,79.47
2023-02-15T04:44:52.510Z,79.37
2023-02-15T04:45:52.572Z,79.78
2023-02-15T04:46:52.484Z,79.68
2023-02-15T04:47:52.438Z,79.06
2023-02-15T04:48:52.432Z,79.27
2023-02-15T04:49:52.449Z,79.06
2023-02-15T04:50:52.407Z,79.88
2023-02-15T04:51:52.424Z,79.78
2023-02-15T04:52:52.382Z,79.16
2023-02-15T04:53:52.375Z,79.68
2023-02-15T04:54:52.365Z,79.71
2023-02-15T04:55:52.516Z,79.71
2023-02-15T04:56:52.339Z,79.61
2023-02-15T04:57:52.348Z,79.61
2023-02-15T04:58:52.317Z,79.82
2023-02-15T04:59:52.335Z,79.82
2023-02-15T05:00:52.382Z,79.51
2023-02-15T05:01:52.323Z,79.71
2023-02-15T05:02:52.301Z,79.61
2023-02-15T05:03:52.317Z,79.51
2023-02-15T05:04:52.261Z,79.55
2023-02-15T05:05:52.250Z,79.75
2023-02-15T05:06:52.228Z,79.44
2023-02-15T05:07:52.279Z,79.44
2023-02-15T05:08:52.211Z,79.24
2023-02-15T05:09:52.192Z,79.96
2023-02-15T05:10:52.189Z,79.55
2023-02-15T05:11:52.173Z,79.55
2023-02-15T05:12:52.168Z,79.65
2023-02-15T05:13:52.185Z,79.79
2023-02-15T05:14:52.139Z,79.65
2023-02-15T05:15:52.133Z,79.55
2023-02-15T05:16:52.176Z,79.44
2023-02-15T05:17:52.109Z,79.38
2023-02-15T05:18:52.097Z,79.44
2023-02-15T05:19:52.121Z,79.38
2023-02-15T05:20:52.073Z,79.79
2023-02-15T05:21:52.074Z,79.27
2023-02-15T05:22:52.056Z,80.00
2023-02-15T05:23:52.080Z,79.48
2023-02-15T05:24:52.028Z,79.58
2023-02-15T05:25:52.112Z,79.48
2023-02-15T05:26:52.004Z,79.79
2023-02-15T05:27:52.016Z,79.58
2023-02-15T05:28:52.005Z,79.69
2023-02-15T05:29:52.148Z,79.48
2023-02-15T05:30:52.188Z,79.48
2023-02-15T05:31:52.215Z,79.48
2023-02-15T05:32:52.064Z,79.69
2023-02-15T05:33:51.931Z,79.48
2023-02-15T05:34:51.944Z,79.48
2023-02-15T05:35:51.908Z,79.58
2023-02-15T05:36:51.900Z,79.69
2023-02-15T05:37:51.924Z,79.79
2023-02-15T05:38:51.875Z,79.48
2023-02-15T05:39:51.895Z,79.69
2023-02-15T05:40:51.855Z,79.72
2023-02-15T05:41:51.841Z,79.51
2023-02-15T05:42:51.859Z,79.38
2023-02-15T05:43:51.855Z,79.83
2023-02-15T05:44:51.822Z,79.72
2023-02-15T05:45:51.820Z,79.83
2023-02-15T05:46:51.807Z,79.41
2023-02-15T05:47:51.778Z,79.72
2023-02-15T05:48:51.785Z,79.72
2023-02-15T05:49:51.791Z,79.72
2023-02-15T05:50:51.754Z,79.86
2023-02-15T05:51:51.735Z,79.86
2023-02-15T05:52:52.591Z,79.86
2023-02-15T05:53:51.717Z,79.76
2023-02-15T05:54:51.701Z,79.97
2023-02-15T05:55:51.760Z,79.86
2023-02-15T05:56:51.687Z,79.38
2023-02-15T05:57:51.690Z,79.86
2023-02-15T05:58:51.658Z,79.80
2023-02-15T05:59:51.646Z,80.00
2023-02-15T06:00:51.639Z,79.80
2023-02-15T06:01:51.678Z,79.90
2023-02-15T06:02:51.612Z,80.00
2023-02-15T06:03:51.720Z,79.94
2023-02-15T06:04:51.590Z,79.90
2023-02-15T06:05:51.582Z,79.83
2023-02-15T06:06:51.573Z,79.52
2023-02-15T06:07:51.603Z,79.52
2023-02-15T06:08:51.551Z,79.83
2023-02-15T06:09:51.538Z,79.83
2023-02-15T06:10:51.530Z,79.62
2023-02-15T06:11:51.540Z,79.72
2023-02-15T06:12:51.506Z,79.94
2023-02-15T06:13:51.537Z,80.04
2023-02-15T06:14:51.488Z,79.83
2023-02-15T06:15:51.513Z,79.94
2023-02-15T06:16:51.457Z,79.94
2023-02-15T06:17:51.523Z,79.41
2023-02-15T06:18:53.700Z,80.04
2023-02-15T06:19:51.457Z,79.94
2023-02-15T06:20:51.419Z,79.41
2023-02-15T06:21:51.405Z,79.52
2023-02-15T06:22:51.421Z,79.72
2023-02-15T06:23:51.383Z,79.31
2023-02-15T06:24:51.374Z,79.31
2023-02-15T06:25:51.425Z,79.10
2023-02-15T06:26:51.347Z,79.52
2023-02-15T06:27:51.406Z,79.38
2023-02-15T06:28:51.326Z,79.41
2023-02-15T06:29:51.337Z,79.52
2023-02-15T06:30:51.378Z,79.52
2023-02-15T06:31:51.469Z,79.48
2023-02-15T06:32:51.286Z,79.80
2023-02-15T06:33:51.269Z,79.38
2023-02-15T06:34:51.279Z,79.58
2023-02-15T06:35:51.249Z,79.48
2023-02-15T06:36:51.248Z,79.38
2023-02-15T06:37:51.291Z,79.38
2023-02-15T06:38:51.214Z,79.38
2023-02-15T06:39:51.352Z,79.27
2023-02-15T06:40:51.232Z,80.00
2023-02-15T06:41:51.200Z,79.48
2023-02-15T06:42:52.029Z,79.58
2023-02-15T06:43:51.557Z,79.58
2023-02-15T06:44:51.304Z,79.27
2023-02-15T06:45:51.213Z,79.58
2023-02-15T06:46:51.192Z,79.44
2023-02-15T06:47:51.121Z,79.44
2023-02-15T06:48:51.117Z,79.55
2023-02-15T06:49:51.203Z,79.24
2023-02-15T06:50:51.142Z,79.76
2023-02-15T06:51:51.112Z,79.55
2023-02-15T06:52:51.062Z,79.72
2023-02-15T06:53:51.069Z,79.51
2023-02-15T06:54:51.055Z,79.65
2023-02-15T06:55:51.072Z,79.51
2023-02-15T06:56:51.017Z,79.30
2023-02-15T06:57:51.240Z,79.51
2023-02-15T06:58:51.053Z,79.72
2023-02-15T06:59:51.555Z,79.41
2023-02-15T07:00:50.984Z,79.69
2023-02-15T07:01:51.169Z,79.69
2023-02-15T07:02:50.966Z,79.79
2023-02-15T07:03:50.984Z,79.38
2023-02-15T07:04:51.012Z,79.27
2023-02-15T07:05:50.958Z,79.58
2023-02-15T07:06:53.622Z,79.48
2023-02-15T07:07:50.927Z,79.55
2023-02-15T07:08:50.887Z,79.55
2023-02-15T07:09:50.872Z,79.75
2023-02-15T07:10:50.872Z,79.75
2023-02-15T07:11:50.886Z,79.34
2023-02-15T07:12:50.835Z,79.55
2023-02-15T07:13:50.873Z,79.85
2023-02-15T07:14:50.817Z,79.71
2023-02-15T07:15:50.856Z,79.41
2023-02-15T07:16:50.796Z,79.51
2023-02-15T07:17:50.792Z,79.20
2023-02-15T07:18:50.769Z,79.37
2023-02-15T07:19:50.796Z,79.41
2023-02-15T07:20:50.750Z,79.27
2023-02-15T07:21:50.755Z,79.58
2023-02-15T07:22:50.739Z,79.27
2023-02-15T07:23:50.719Z,79.37
2023-02-15T07:24:50.711Z,79.06
2023-02-15T07:25:50.754Z,79.37
2023-02-15T07:26:50.679Z,79.37
2023-02-15T07:27:50.664Z,79.06
2023-02-15T07:28:50.664Z,79.23
2023-02-15T07:29:50.669Z,78.81
2023-02-15T07:30:50.718Z,78.92
2023-02-15T07:31:50.740Z,78.81
2023-02-15T07:32:50.609Z,78.92
2023-02-15T07:33:50.601Z,79.02
2023-02-15T07:34:50.597Z,78.92
2023-02-15T07:35:50.618Z,79.02
2023-02-15T07:36:50.643Z,78.81
2023-02-15T07:37:50.608Z,78.81
2023-02-15T07:38:50.544Z,78.78
2023-02-15T07:39:50.536Z,78.67
2023-02-15T07:40:50.526Z,78.67
2023-02-15T07:41:50.516Z,78.88
2023-02-15T07:42:51.832Z,78.36
2023-02-15T07:43:50.537Z,78.57
2023-02-15T07:44:50.482Z,78.47
2023-02-15T07:45:50.468Z,78.47
2023-02-15T07:46:50.566Z,78.36
2023-02-15T07:47:50.637Z,78.53
2023-02-15T07:48:50.441Z,78.33
2023-02-15T07:49:50.499Z,78.53
2023-02-15T07:50:50.417Z,78.53
2023-02-15T07:51:50.403Z,78.53
2023-02-15T07:52:50.398Z,78.43
2023-02-15T07:53:50.379Z,78.22
2023-02-15T07:54:50.393Z,78.43
2023-02-15T07:55:50.396Z,78.43
2023-02-15T07:56:50.347Z,78.08
2023-02-15T07:57:51.036Z,78.39
2023-02-15T07:58:50.405Z,78.29
2023-02-15T07:59:50.320Z,78.50
2023-02-15T08:00:50.296Z,78.39
2023-02-15T08:01:51.066Z,78.29
2023-02-15T08:02:50.310Z,78.29
2023-02-15T08:03:50.488Z,78.25
2023-02-15T08:04:50.261Z,78.29
2023-02-15T08:05:50.252Z,78.77
2023-02-15T08:06:51.168Z,78.15
2023-02-15T08:07:50.568Z,78.36
2023-02-15T08:08:50.236Z,78.25
2023-02-15T08:09:50.208Z,78.22
2023-02-15T08:10:50.190Z,78.42
2023-02-15T08:11:50.200Z,78.32
2023-02-15T08:12:50.169Z,78.22
2023-02-15T08:13:50.195Z,78.08
2023-02-15T08:14:50.148Z,78.18
2023-02-15T08:15:50.148Z,78.49
2023-02-15T08:16:50.422Z,78.39
2023-02-15T08:17:50.107Z,78.28
2023-02-15T08:18:50.119Z,78.18
2023-02-15T08:19:50.286Z,77.98
2023-02-15T08:20:50.084Z,78.14
2023-02-15T08:21:50.086Z,77.98
2023-02-15T08:22:50.060Z,78.14
2023-02-15T08:23:50.058Z,78.14
2023-02-15T08:24:50.036Z,77.94
2023-02-15T08:25:50.109Z,77.94
2023-02-15T08:26:50.059Z,77.94
2023-02-15T08:27:50.008Z,77.91
2023-02-15T08:28:50.001Z,77.91
2023-02-15T08:29:50.012Z,78.01
2023-02-15T08:30:50.040Z,78.01
2023-02-15T08:31:50.196Z,77.91
2023-02-15T08:32:49.952Z,78.01
2023-02-15T08:33:49.947Z,77.70
2023-02-15T08:34:49.931Z,78.01
2023-02-15T08:35:49.957Z,77.97
2023-02-15T08:36:49.911Z,77.87
2023-02-15T08:37:49.924Z,77.76
2023-02-15T08:38:49.903Z,77.87
2023-02-15T08:39:49.876Z,77.76
2023-02-15T08:40:49.864Z,77.76
2023-02-15T08:41:49.873Z,77.76
2023-02-15T08:42:49.881Z,77.76
2023-02-15T08:43:50.004Z,77.87
2023-02-15T08:44:50.469Z,77.94
2023-02-15T08:45:49.974Z,77.94
2023-02-15T08:46:49.928Z,77.83
2023-02-15T08:47:49.784Z,77.62
2023-02-15T08:48:49.775Z,77.73
2023-02-15T08:49:49.823Z,77.73
2023-02-15T08:50:49.756Z,77.83
2023-02-15T08:51:49.778Z,77.94
2023-02-15T08:52:50.549Z,77.94
2023-02-15T08:53:49.724Z,77.83
2023-02-15T08:54:49.735Z,77.73
2023-02-15T08:55:49.776Z,77.73
2023-02-15T08:56:49.695Z,77.69
2023-02-15T08:57:49.674Z,77.69
2023-02-15T08:58:49.668Z,78.00
2023-02-15T08:59:49.655Z,77.59
2023-02-15T09:00:49.682Z,77.90
2023-02-15T09:01:49.761Z,77.80
2023-02-15T09:02:49.617Z,77.80
2023-02-15T09:03:50.584Z,77.90
2023-02-15T09:04:49.594Z,77.66
2023-02-15T09:05:49.580Z,78.11
2023-02-15T09:06:49.656Z,77.76
2023-02-15T09:07:49.611Z,77.86
2023-02-15T09:08:49.545Z,77.76
2023-02-15T09:09:49.537Z,77.86
2023-02-15T09:10:49.530Z,77.86
2023-02-15T09:11:50.367Z,77.86
2023-02-15T09:12:49.503Z,77.86
2023-02-15T09:13:50.739Z,77.86
2023-02-15T09:14:49.485Z,77.83
2023-02-15T09:15:49.467Z,77.66
2023-02-15T09:16:50.188Z,77.72
2023-02-15T09:17:49.464Z,77.55
2023-02-15T09:18:49.434Z,77.83
2023-02-15T09:19:49.592Z,77.83
2023-02-15T09:20:49.416Z,77.72
2023-02-15T09:21:49.406Z,77.89
2023-02-15T09:22:49.392Z,78.10
2023-02-15T09:23:49.569Z,77.69
2023-02-15T09:24:50.055Z,77.79
2023-02-15T09:25:49.393Z,77.58
2023-02-15T09:26:50.054Z,77.89
2023-02-15T09:27:49.519Z,77.58
2023-02-15T09:28:49.346Z,77.89
2023-02-15T09:29:49.320Z,78.00
2023-02-15T09:30:49.545Z,77.79
2023-02-15T09:31:49.547Z,77.69
2023-02-15T09:32:49.357Z,77.69
2023-02-15T09:33:49.378Z,77.79
2023-02-15T09:34:49.282Z,77.55
2023-02-15T09:35:49.255Z,77.96
2023-02-15T09:36:49.379Z,77.86
2023-02-15T09:37:49.404Z,77.86
2023-02-15T09:38:49.256Z,77.79
2023-02-15T09:39:49.319Z,77.86
2023-02-15T09:40:49.194Z,77.79
2023-02-15T09:41:49.247Z,77.79
2023-02-15T09:42:49.263Z,77.55
2023-02-15T09:43:49.222Z,77.89
2023-02-15T09:44:49.151Z,77.75
2023-02-15T09:45:49.192Z,77.65
2023-02-15T09:46:49.172Z,77.55
2023-02-15T09:47:49.117Z,77.55
2023-02-15T09:48:49.110Z,77.65
2023-02-15T09:49:49.113Z,77.55
2023-02-15T09:50:49.092Z,77.75
2023-02-15T09:51:49.120Z,77.82
2023-02-15T09:52:49.072Z,77.62
2023-02-15T09:53:49.048Z,77.41
2023-02-15T09:54:49.039Z,77.62
2023-02-15T09:55:49.108Z,77.72
2023-02-15T09:56:49.355Z,77.72
2023-02-15T09:57:49.558Z,77.62
2023-02-15T09:58:49.988Z,77.72
2023-02-15T09:59:48.988Z,77.41
2023-02-15T10:00:48.972Z,77.72
2023-02-15T10:01:49.198Z,78.03
2023-02-15T10:02:48.956Z,77.51
2023-02-15T10:03:48.934Z,77.99
2023-02-15T10:04:48.998Z,77.78
2023-02-15T10:05:48.919Z,77.48
2023-02-15T10:06:48.984Z,77.48
2023-02-15T10:07:48.946Z,77.68
2023-02-15T10:08:48.878Z,77.68
2023-02-15T10:09:49.571Z,77.78
2023-02-15T10:10:48.854Z,77.68
2023-02-15T10:11:48.988Z,77.58
2023-02-15T10:12:48.842Z,77.78
2023-02-15T10:13:48.893Z,77.78
2023-02-15T10:14:48.827Z,77.78
2023-02-15T10:15:48.808Z,77.68
2023-02-15T10:16:48.833Z,77.58
2023-02-15T10:17:48.783Z,77.58
2023-02-15T10:18:48.784Z,77.65
2023-02-15T10:19:48.803Z,77.65
2023-02-15T10:20:48.750Z,77.65
2023-02-15T10:21:48.757Z,77.55
2023-02-15T10:22:48.717Z,77.55
2023-02-15T10:23:48.715Z,77.51
2023-02-15T10:24:49.174Z,77.61
2023-02-15T10:25:48.738Z,77.61
2023-02-15T10:26:48.689Z,77.61
2023-02-15T10:27:48.697Z,77.75
2023-02-15T10:28:48.677Z,77.85
2023-02-15T10:29:48.682Z,77.71
2023-02-15T10:30:48.690Z,77.71
2023-02-15T10:31:48.821Z,77.55
2023-02-15T10:32:48.612Z,77.51
2023-02-15T10:33:48.600Z,77.61
2023-02-15T10:34:48.587Z,77.61
2023-02-15T10:35:48.608Z,77.51
2023-02-15T10:36:48.581Z,77.71
2023-02-15T10:37:48.572Z,77.71
2023-02-15T10:38:48.546Z,77.61
2023-02-15T10:39:48.532Z,77.61
2023-02-15T10:40:48.557Z,77.71
2023-02-15T10:41:48.550Z,77.37
2023-02-15T10:42:48.547Z,77.58
2023-02-15T10:43:48.597Z,77.58
2023-02-15T10:44:48.480Z,77.47
2023-02-15T10:45:48.574Z,77.58
2023-02-15T10:46:48.472Z,77.58
2023-02-15T10:47:48.446Z,77.58
2023-02-15T10:48:48.429Z,77.58
2023-02-15T10:49:48.441Z,77.54
2023-02-15T10:50:48.411Z,77.54
2023-02-15T10:51:49.004Z,77.58
2023-02-15T10:52:48.418Z,77.58
2023-02-15T10:53:48.377Z,77.26
2023-02-15T10:54:48.368Z,77.54
2023-02-15T10:55:48.387Z,77.44
2023-02-15T10:56:48.338Z,77.44
2023-02-15T10:57:48.335Z,77.33
2023-02-15T10:58:48.319Z,77.64
2023-02-15T10:59:48.430Z,77.33
2023-02-15T11:00:48.294Z,77.64
2023-02-15T11:01:48.429Z,77.40
2023-02-15T11:02:48.279Z,77.44
2023-02-15T11:03:48.258Z,77.40
2023-02-15T11:04:48.398Z,77.50
2023-02-15T11:05:48.238Z,77.40
2023-02-15T11:06:49.068Z,77.40
2023-02-15T11:07:48.257Z,77.20
2023-02-15T11:08:48.265Z,77.29
2023-02-15T11:09:48.191Z,77.29
2023-02-15T11:10:48.188Z,77.40
2023-02-15T11:11:48.179Z,77.29
2023-02-15T11:12:48.185Z,77.47
2023-02-15T11:13:48.165Z,77.61
2023-02-15T11:14:49.081Z,77.57
2023-02-15T11:15:48.215Z,77.47
2023-02-15T11:16:48.117Z,77.57
2023-02-15T11:17:48.281Z,77.57
2023-02-15T11:18:49.128Z,77.26
2023-02-15T11:19:48.109Z,77.26
2023-02-15T11:20:48.085Z,77.57
2023-02-15T11:21:48.066Z,77.67
2023-02-15T11:22:48.047Z,77.36
2023-02-15T11:23:48.036Z,77.26
2023-02-15T11:24:48.027Z,77.26
2023-02-15T11:25:48.049Z,77.64
2023-02-15T11:26:48.008Z,77.23
2023-02-15T11:27:48.577Z,77.53
2023-02-15T11:28:48.108Z,77.33
2023-02-15T11:29:48.079Z,77.43
2023-02-15T11:30:48.058Z,77.43
2023-02-15T11:31:48.075Z,77.43
2023-02-15T11:32:47.936Z,77.43
2023-02-15T11:33:48.039Z,77.23
2023-02-15T11:34:47.915Z,77.23
2023-02-15T11:35:47.990Z,77.43
2023-02-15T11:36:47.897Z,77.53
2023-02-15T11:37:47.921Z,77.33
2023-02-15T11:38:47.870Z,77.50
2023-02-15T11:39:47.908Z,77.33
2023-02-15T11:40:48.046Z,77.43
2023-02-15T11:41:47.826Z,77.43
2023-02-15T11:42:47.827Z,77.12
2023-02-15T11:43:48.752Z,77.43
2023-02-15T11:44:47.861Z,77.43
2023-02-15T11:45:47.783Z,77.29
2023-02-15T11:46:47.896Z,77.43
2023-02-15T11:47:47.826Z,77.60
2023-02-15T11:48:47.757Z,77.39
2023-02-15T11:49:47.783Z,77.39
2023-02-15T11:50:47.791Z,77.39
2023-02-15T11:51:47.717Z,77.50
2023-02-15T11:52:47.762Z,77.39
2023-02-15T11:53:47.882Z,77.39
2023-02-15T11:54:47.693Z,77.39
2023-02-15T11:55:47.708Z,77.46
2023-02-15T11:56:47.673Z,77.29
2023-02-15T11:57:47.652Z,77.29
2023-02-15T11:58:47.663Z,77.39
2023-02-15T11:59:47.636Z,77.39
2023-02-15T12:00:47.620Z,77.50
2023-02-15T12:01:47.641Z,76.98
2023-02-15T12:02:47.709Z,77.39
2023-02-15T12:03:47.734Z,77.29
2023-02-15T12:04:47.571Z,77.19
2023-02-15T12:05:47.635Z,77.19
2023-02-15T12:06:48.524Z,77.29
2023-02-15T12:07:47.569Z,77.19
2023-02-15T12:08:47.551Z,77.39
2023-02-15T12:09:47.511Z,77.19
2023-02-15T12:10:47.520Z,77.26
2023-02-15T12:11:47.502Z,77.29
2023-02-15T12:12:47.568Z,77.39
2023-02-15T12:13:47.503Z,77.19
2023-02-15T12:14:47.460Z,77.36
2023-02-15T12:15:47.695Z,77.29
2023-02-15T12:16:47.442Z,77.15
2023-02-15T12:17:47.426Z,77.15
2023-02-15T12:18:47.416Z,77.46
2023-02-15T12:19:47.636Z,77.29
2023-02-15T12:20:47.386Z,77.29
2023-02-15T12:21:48.084Z,77.36
2023-02-15T12:22:47.372Z,77.26
2023-02-15T12:23:47.355Z,77.39
2023-02-15T12:24:47.354Z,77.36
2023-02-15T12:25:47.386Z,77.39
2023-02-15T12:26:47.345Z,77.19
2023-02-15T12:27:48.174Z,77.29
2023-02-15T12:28:47.302Z,77.36
2023-02-15T12:29:48.227Z,77.39
2023-02-15T12:30:47.281Z,77.26
2023-02-15T12:31:47.523Z,77.36
2023-02-15T12:32:47.261Z,77.26
2023-02-15T12:33:47.247Z,77.15
2023-02-15T12:34:47.233Z,77.12
2023-02-15T12:35:47.305Z,77.15
2023-02-15T12:36:47.251Z,77.26
2023-02-15T12:37:47.213Z,77.22
2023-02-15T12:38:47.198Z,77.12
2023-02-15T12:39:47.184Z,77.36
2023-02-15T12:40:47.183Z,77.12
2023-02-15T12:41:47.181Z,77.42
2023-02-15T12:42:47.217Z,77.67
2023-02-15T12:43:47.341Z,77.01
2023-02-15T12:44:47.122Z,77.12
2023-02-15T12:45:47.113Z,77.32
2023-02-15T12:46:47.518Z,77.42
2023-02-15T12:47:47.088Z,77.36
2023-02-15T12:48:47.199Z,77.32
2023-02-15T12:49:48.277Z,77.56
2023-02-15T12:50:47.146Z,77.26
2023-02-15T12:51:47.092Z,77.36
2023-02-15T12:52:47.028Z,77.36